createdAt,value
2023-01-09T00:01:48.067Z,100554.00
2023-01-09T00:04:15.022Z,100551.44
2023-01-09T00:06:43.563Z,100549.69
2023-01-09T00:09:11.024Z,100560.00
2023-01-09T00:11:38.034Z,100566.88
2023-01-09T00:14:18.139Z,100556.56
2023-01-09T00:16:47.316Z,100566.06
2023-01-09T00:19:14.417Z,100564.31
2023-01-09T00:21:41.611Z,100549.75
2023-01-09T00:24:08.610Z,100546.41
2023-01-09T00:26:37.945Z,100536.13
2023-01-09T00:29:06.908Z,100540.47
2023-01-09T00:31:36.777Z,100542.22
2023-01-09T00:34:06.538Z,100550.88
2023-01-09T00:36:33.663Z,100564.53
2023-01-09T00:39:00.485Z,100561.13
2023-01-09T00:41:32.869Z,100567.94
2023-01-09T00:44:04.948Z,100551.56
2023-01-09T00:46:36.432Z,100561.88
2023-01-09T00:49:05.701Z,100573.00
2023-01-09T00:51:34.286Z,100573.84
2023-01-09T00:54:03.153Z,100566.03
2023-01-09T00:56:29.987Z,100571.19
2023-01-09T00:58:57.008Z,100559.13
2023-01-09T01:01:24.166Z,100562.56
2023-01-09T01:03:51.175Z,100554.81
2023-01-09T01:06:39.332Z,100554.75
2023-01-09T01:09:06.097Z,100554.72
2023-01-09T01:11:33.768Z,100548.72
2023-01-09T01:14:00.645Z,100552.94
2023-01-09T01:16:27.504Z,100565.00
2023-01-09T01:18:54.420Z,100558.00
2023-01-09T01:21:21.215Z,100564.09
2023-01-09T01:23:48.083Z,100547.72
2023-01-09T01:26:16.947Z,100546.09
2023-01-09T01:28:44.440Z,100534.94
2023-01-09T01:31:17.104Z,100528.13
2023-01-09T01:33:44.078Z,100508.31
2023-01-09T01:36:11.307Z,100522.88
2023-01-09T01:38:38.295Z,100515.03
2023-01-09T01:41:07.213Z,100523.59
2023-01-09T01:43:59.970Z,100515.00
2023-01-09T01:46:28.289Z,100509.06
2023-01-09T01:49:00.988Z,100512.53
2023-01-09T01:51:33.749Z,100500.56
2023-01-09T01:54:06.749Z,100492.81
2023-01-09T01:56:42.758Z,100491.09
2023-01-09T01:59:16.705Z,100497.88
2023-01-09T02:01:46.815Z,100488.34
2023-01-09T02:04:14.044Z,100496.91
2023-01-09T02:06:42.264Z,100492.69
2023-01-09T02:09:09.518Z,100496.97
2023-01-09T02:11:36.255Z,100506.44
2023-01-09T02:14:03.557Z,100508.13
2023-01-09T02:17:02.486Z,100510.69
2023-01-09T02:20:02.804Z,100505.47
2023-01-09T02:22:54.208Z,100496.97
2023-01-09T02:25:32.830Z,100501.19
2023-01-09T02:28:24.084Z,100504.63
2023-01-09T02:31:06.336Z,100498.69
2023-01-09T02:33:48.421Z,100496.88
2023-01-09T02:36:18.386Z,100487.41
2023-01-09T02:38:54.726Z,100478.88
2023-01-09T02:41:30.285Z,100473.75
2023-01-09T02:44:30.299Z,100467.69
2023-01-09T02:47:23.788Z,100460.84
2023-01-09T02:49:54.163Z,100454.88
2023-01-09T02:53:12.723Z,100449.75
2023-01-09T02:56:01.576Z,100448.09
2023-01-09T02:58:42.355Z,100448.94
2023-01-09T03:01:27.549Z,100436.09
2023-01-09T03:04:00.249Z,100434.44
2023-01-09T03:06:49.715Z,100441.41
2023-01-09T03:09:24.307Z,100436.16
2023-01-09T03:11:55.754Z,100425.81
2023-01-09T03:14:26.148Z,100429.25
2023-01-09T03:16:58.789Z,100424.09
2023-01-09T03:19:29.909Z,100423.25
2023-01-09T03:21:57.571Z,100433.50
2023-01-09T03:24:24.467Z,100449.81
2023-01-09T03:26:54.322Z,100439.50
2023-01-09T03:29:22.173Z,100454.06
2023-01-09T03:31:49.286Z,100464.34
2023-01-09T03:34:16.096Z,100477.19
2023-01-09T03:36:42.960Z,100477.16
2023-01-09T03:39:09.647Z,100475.44
2023-01-09T03:41:36.746Z,100471.16
2023-01-09T03:44:03.505Z,100472.88
2023-01-09T03:46:30.425Z,100458.38
2023-01-09T03:48:57.428Z,100447.22
2023-01-09T03:51:24.468Z,100452.41
2023-01-09T03:53:51.187Z,100444.69
2023-01-09T03:56:18.067Z,100435.28
2023-01-09T03:58:44.855Z,100435.28
2023-01-09T04:01:14.569Z,100423.28
2023-01-09T04:03:41.593Z,100423.28
2023-01-09T04:06:08.537Z,100426.78
2023-01-09T04:08:35.439Z,100415.66
2023-01-09T04:11:02.264Z,100409.66
2023-01-09T04:13:29.146Z,100416.50
2023-01-09T04:15:56.003Z,100422.50
2023-01-09T04:18:22.772Z,100420.81
2023-01-09T04:20:49.555Z,100422.53
2023-01-09T04:23:16.679Z,100407.09
2023-01-09T04:25:43.468Z,100410.53
2023-01-09T04:28:10.376Z,100416.56
2023-01-09T04:30:37.175Z,100421.69
2023-01-09T04:33:04.065Z,100419.09
2023-01-09T04:35:30.775Z,100413.13
2023-01-09T04:37:57.678Z,100415.72
2023-01-09T04:40:24.406Z,100413.16
2023-01-09T04:42:51.270Z,100423.44
2023-01-09T04:45:18.101Z,100431.09
2023-01-09T04:47:45.087Z,100424.22
2023-01-09T04:50:12.914Z,100425.94
2023-01-09T04:52:39.902Z,100429.34
2023-01-09T04:55:08.312Z,100423.38
2023-01-09T04:57:36.006Z,100425.06
2023-01-09T05:00:05.151Z,100431.03
2023-01-09T05:02:32.002Z,100435.31
2023-01-09T05:04:58.860Z,100432.75
2023-01-09T05:07:25.664Z,100432.72
2023-01-09T05:09:52.459Z,100436.16
2023-01-09T05:12:19.231Z,100427.56
2023-01-09T05:14:46.030Z,100425.03
2023-01-09T05:17:12.877Z,100409.63
2023-01-09T05:19:39.565Z,100419.94
2023-01-09T05:22:06.359Z,100419.13
2023-01-09T05:24:33.252Z,100414.75
2023-01-09T05:27:02.689Z,100418.22
2023-01-09T05:29:29.614Z,100425.88
2023-01-09T05:31:56.495Z,100444.72
2023-01-09T05:34:26.006Z,100444.72
2023-01-09T05:36:53.803Z,100445.53
2023-01-09T05:39:20.688Z,100449.81
2023-01-09T05:41:47.442Z,100454.81
2023-01-09T05:44:14.467Z,100450.47
2023-01-09T05:46:41.343Z,100412.84
2023-01-09T05:49:08.090Z,100366.69
2023-01-09T05:51:35.198Z,100378.69
2023-01-09T05:54:02.933Z,100409.56
2023-01-09T05:56:30.171Z,100425.81
2023-01-09T05:58:57.024Z,100430.94
2023-01-09T06:01:24.133Z,100409.50
2023-01-09T06:03:51.095Z,100409.53
2023-01-09T06:06:17.859Z,100411.25
2023-01-09T06:08:44.697Z,100409.56
2023-01-09T06:11:11.404Z,100409.59
2023-01-09T06:13:38.435Z,100396.72
2023-01-09T06:16:05.762Z,100386.50
2023-01-09T06:18:32.588Z,100373.66
2023-01-09T06:20:59.401Z,100341.13
2023-01-09T06:23:26.290Z,100300.06
2023-01-09T06:25:52.991Z,100294.91
2023-01-09T06:28:19.749Z,100294.06
2023-01-09T06:30:50.716Z,100294.88
2023-01-09T06:33:17.714Z,100305.19
2023-01-09T06:35:44.676Z,100318.03
2023-01-09T06:38:12.609Z,100332.53
2023-01-09T06:40:39.495Z,100321.44
2023-01-09T06:43:06.504Z,100251.25
2023-01-09T06:45:33.741Z,100248.66
2023-01-09T06:48:00.585Z,100242.69
2023-01-09T06:50:27.387Z,100245.22
2023-01-09T06:52:54.257Z,100259.75
2023-01-09T06:55:21.435Z,100308.56
2023-01-09T06:57:48.333Z,100324.84
2023-01-09T07:00:15.547Z,100343.66
2023-01-09T07:02:42.415Z,100375.38
2023-01-09T07:05:11.608Z,100397.63
2023-01-09T07:07:41.628Z,100401.84
2023-01-09T07:10:09.677Z,100400.13
2023-01-09T07:12:36.451Z,100400.94
2023-01-09T07:15:03.581Z,100407.75
2023-01-09T07:17:30.323Z,100386.38
2023-01-09T07:19:57.153Z,100384.75
2023-01-09T07:22:23.948Z,100382.13
2023-01-09T07:24:50.771Z,100382.09
2023-01-09T07:27:17.528Z,100384.69
2023-01-09T07:29:44.366Z,100374.44
2023-01-09T07:32:11.141Z,100382.19
2023-01-09T07:34:37.945Z,100395.00
2023-01-09T07:37:04.719Z,100393.34
2023-01-09T07:39:31.622Z,100401.94
2023-01-09T07:41:58.591Z,100400.19
2023-01-09T07:44:26.189Z,100393.38
2023-01-09T07:46:52.881Z,100391.66
2023-01-09T07:49:19.681Z,100389.94
2023-01-09T07:51:48.370Z,100374.56
2023-01-09T07:54:15.196Z,100376.28
2023-01-09T07:56:41.993Z,100362.59
2023-01-09T07:59:08.973Z,100349.00
2023-01-09T08:01:35.984Z,100355.84
2023-01-09T08:04:02.913Z,100363.56
2023-01-09T08:06:30.191Z,100362.69
2023-01-09T08:08:57.866Z,100342.16
2023-01-09T08:11:25.631Z,100346.53
2023-01-09T08:13:52.950Z,100343.13
2023-01-09T08:16:19.809Z,100343.13
2023-01-09T08:18:47.042Z,100345.69
2023-01-09T08:21:14.510Z,100352.56
2023-01-09T08:23:41.465Z,100347.41
2023-01-09T08:26:08.399Z,100357.69
2023-01-09T08:28:35.332Z,100356.81
2023-01-09T08:31:02.115Z,100358.59
2023-01-09T08:33:29.330Z,100367.19
2023-01-09T08:35:56.499Z,100359.50
2023-01-09T08:38:23.388Z,100355.22
2023-01-09T08:40:50.403Z,100338.91
2023-01-09T08:43:35.944Z,100344.91
2023-01-09T08:46:21.752Z,100348.34
2023-01-09T08:48:48.760Z,100350.06
2023-01-09T08:51:15.787Z,100337.19
2023-01-09T08:53:42.668Z,100332.91
2023-01-09T08:56:10.543Z,100340.66
2023-01-09T08:58:37.345Z,100323.50
2023-01-09T09:01:08.009Z,100332.94
2023-01-09T09:03:34.971Z,100336.38
2023-01-09T09:06:01.750Z,100332.94
2023-01-09T09:08:28.872Z,100332.06
2023-01-09T09:10:57.395Z,100324.38
2023-01-09T09:13:24.254Z,100332.09
2023-01-09T09:15:51.038Z,100332.09
2023-01-09T09:18:17.975Z,100324.34
2023-01-09T09:20:44.827Z,100302.06
2023-01-09T09:23:11.755Z,100320.94
2023-01-09T09:25:39.489Z,100308.13
2023-01-09T09:28:06.942Z,100310.69
2023-01-09T09:30:33.860Z,100310.75
2023-01-09T09:33:03.240Z,100321.91
2023-01-09T09:35:31.170Z,100315.88
2023-01-09T09:38:05.208Z,100319.38
2023-01-09T09:40:57.341Z,100312.53
2023-01-09T09:44:01.260Z,100310.84
2023-01-09T09:46:58.244Z,100298.88
2023-01-09T09:49:48.251Z,100298.88
2023-01-09T09:52:30.838Z,100304.88
2023-01-09T09:55:00.819Z,100305.72
2023-01-09T09:57:34.459Z,100311.75
2023-01-09T10:00:03.610Z,100314.34
2023-01-09T10:03:06.290Z,100311.75
2023-01-09T10:05:49.654Z,100311.72
2023-01-09T10:08:35.633Z,100310.00
2023-01-09T10:11:02.603Z,100296.31
2023-01-09T10:13:49.482Z,100301.44
2023-01-09T10:16:36.306Z,100305.72
2023-01-09T10:19:16.556Z,100294.59
2023-01-09T10:22:02.040Z,100302.31
2023-01-09T10:24:41.433Z,100301.41
2023-01-09T10:27:31.487Z,100292.84
2023-01-09T10:30:11.747Z,100289.41
2023-01-09T10:33:22.984Z,100294.53
2023-01-09T10:36:17.497Z,100291.06
2023-01-09T10:38:49.492Z,100275.63
2023-01-09T10:41:22.335Z,100278.97
2023-01-09T10:44:15.176Z,100267.81
2023-01-09T10:46:49.281Z,100270.38
2023-01-09T10:49:18.265Z,100260.97
2023-01-09T10:51:50.035Z,100280.66
2023-01-09T10:54:21.579Z,100274.59
2023-01-09T10:57:00.034Z,100283.81
2023-01-09T10:59:27.291Z,100282.50
2023-01-09T11:01:54.729Z,100315.47
2023-01-09T11:04:31.367Z,100317.63
2023-01-09T11:07:07.388Z,100320.13
2023-01-09T11:10:08.542Z,100301.78
2023-01-09T11:12:36.763Z,100310.91
2023-01-09T11:15:20.767Z,100298.78
2023-01-09T11:17:50.713Z,100296.19
2023-01-09T11:20:23.445Z,100296.34
2023-01-09T11:22:53.512Z,100299.09
2023-01-09T11:25:23.787Z,100300.28
2023-01-09T11:28:02.358Z,100301.34
2023-01-09T11:30:36.263Z,100304.09
2023-01-09T11:33:16.017Z,100297.34
2023-01-09T11:36:19.651Z,100290.63
2023-01-09T11:38:49.003Z,100294.06
2023-01-09T11:41:19.310Z,100293.28
2023-01-09T11:43:49.193Z,100297.66
2023-01-09T11:46:41.931Z,100292.66
2023-01-09T11:49:14.719Z,100295.22
2023-01-09T11:51:42.925Z,100291.00
2023-01-09T11:54:27.436Z,100297.03
2023-01-09T11:56:55.907Z,100292.72
2023-01-09T11:59:28.468Z,100290.19
2023-01-09T12:02:16.299Z,100285.91
2023-01-09T12:04:51.064Z,100289.44
2023-01-09T12:07:38.419Z,100274.06
2023-01-09T12:10:27.394Z,100269.84
2023-01-09T12:13:15.425Z,100263.88
2023-01-09T12:15:57.206Z,100268.19
2023-01-09T12:18:51.308Z,100256.22
2023-01-09T12:21:34.329Z,100255.41
2023-01-09T12:24:10.482Z,100255.47
2023-01-09T12:26:37.199Z,100254.63
2023-01-09T12:29:19.233Z,100248.81
2023-01-09T12:31:52.269Z,100245.44
2023-01-09T12:34:28.705Z,100244.56
2023-01-09T12:37:08.880Z,100242.81
2023-01-09T12:40:06.632Z,100249.63
2023-01-09T12:42:46.004Z,100234.22
2023-01-09T12:45:54.206Z,100245.34
2023-01-09T12:48:39.708Z,100243.63
2023-01-09T12:51:37.288Z,100247.03
2023-01-09T12:54:12.883Z,100247.06
2023-01-09T12:56:51.135Z,100242.03
2023-01-09T12:59:45.004Z,100240.41
2023-01-09T13:02:16.836Z,100232.75
2023-01-09T13:04:54.427Z,100229.34
2023-01-09T13:07:27.547Z,100238.78
2023-01-09T13:10:02.500Z,100238.75
2023-01-09T13:12:36.243Z,100242.22
2023-01-09T13:15:07.744Z,100242.22
2023-01-09T13:17:50.168Z,100225.97
2023-01-09T13:20:32.436Z,100230.25
2023-01-09T13:23:02.008Z,100223.41
2023-01-09T13:25:41.450Z,100233.69
2023-01-09T13:28:32.229Z,100236.25
2023-01-09T13:31:25.556Z,100228.53
2023-01-09T13:33:58.336Z,100230.25
2023-01-09T13:36:39.346Z,100224.25
2023-01-09T13:39:06.885Z,100227.69
2023-01-09T13:42:01.064Z,100235.41
2023-01-09T13:44:29.080Z,100231.97
2023-01-09T13:47:00.790Z,100243.97
2023-01-09T13:50:22.203Z,100235.41
2023-01-09T13:52:49.308Z,100230.25
2023-01-09T13:55:25.815Z,100231.09
2023-01-09T13:58:04.597Z,100221.69
2023-01-09T14:00:38.028Z,100231.13
2023-01-09T14:03:26.194Z,100233.69
2023-01-09T14:05:53.039Z,100235.41
2023-01-09T14:08:22.754Z,100238.84
2023-01-09T14:10:53.571Z,100242.22
2023-01-09T14:13:26.419Z,100236.25
2023-01-09T14:16:04.774Z,100247.38
2023-01-09T14:18:36.696Z,100243.09
2023-01-09T14:23:52.758Z,100242.25
2023-01-09T14:26:41.204Z,100237.09
2023-01-09T14:29:36.977Z,100237.97
2023-01-09T14:32:22.883Z,100248.25
2023-01-09T14:35:23.105Z,100250.84
2023-01-09T14:38:01.987Z,100250.00
2023-01-09T14:40:30.551Z,100247.38
2023-01-09T14:43:05.944Z,100254.28
2023-01-09T14:45:35.542Z,100257.69
2023-01-09T14:48:11.233Z,100265.34
2023-01-09T14:50:46.540Z,100272.19
2023-01-09T14:53:21.018Z,100274.69
2023-01-09T14:55:53.648Z,100282.41
2023-01-09T14:58:33.220Z,100274.66
2023-01-09T15:01:03.158Z,100284.94
2023-01-09T15:03:39.090Z,100281.47
2023-01-09T15:06:09.971Z,100280.56
2023-01-09T15:08:36.928Z,100281.47
2023-01-09T15:11:03.795Z,100275.47
2023-01-09T15:13:37.793Z,100269.44
2023-01-09T15:16:26.264Z,100275.47
2023-01-09T15:19:00.250Z,100271.19
2023-01-09T15:21:31.073Z,100278.94
2023-01-09T15:24:16.629Z,100282.38
2023-01-09T15:26:52.430Z,100269.47
2023-01-09T15:29:20.573Z,100261.75
2023-01-09T15:32:09.006Z,100249.75
2023-01-09T15:34:36.809Z,100260.97
2023-01-09T15:37:04.340Z,100264.34
2023-01-09T15:39:36.507Z,100266.06
2023-01-09T15:42:23.026Z,100267.72
2023-01-09T15:44:53.861Z,100270.28
2023-01-09T15:47:23.651Z,100279.72
2023-01-09T15:49:50.607Z,100277.13
2023-01-09T15:52:18.483Z,100282.25
2023-01-09T15:54:46.683Z,100284.81
2023-01-09T15:57:26.099Z,100289.03
2023-01-09T15:59:54.331Z,100277.81
2023-01-09T16:02:44.543Z,100294.91
2023-01-09T16:05:39.154Z,100290.63
2023-01-09T16:08:07.631Z,100292.28
2023-01-09T16:10:35.713Z,100284.41
2023-01-09T16:13:03.143Z,100305.78
2023-01-09T16:15:33.383Z,100304.06
2023-01-09T16:18:18.054Z,100300.66
2023-01-09T16:20:45.715Z,100310.75
2023-01-09T16:23:37.627Z,100315.84
2023-01-09T16:26:04.392Z,100320.13
2023-01-09T16:28:31.401Z,100325.19
2023-01-09T16:31:01.262Z,100334.56
2023-01-09T16:33:30.882Z,100333.72
2023-01-09T16:35:58.786Z,100327.69
2023-01-09T16:38:26.363Z,100344.81
2023-01-09T16:41:18.786Z,100349.13
2023-01-09T16:43:46.474Z,100355.06
2023-01-09T16:46:17.234Z,100355.06
2023-01-09T16:48:44.381Z,100365.25
2023-01-09T16:51:20.859Z,100365.00
2023-01-09T16:53:50.659Z,100367.56
2023-01-09T16:56:26.593Z,100381.19
2023-01-09T16:59:04.934Z,100397.28
2023-01-09T17:01:35.061Z,100397.81
2023-01-09T17:04:17.711Z,100407.75
2023-01-09T17:06:45.044Z,100411.09
2023-01-09T17:09:15.355Z,100404.03
2023-01-09T17:11:42.599Z,100402.19
2023-01-09T17:14:18.456Z,100403.91
2023-01-09T17:16:50.992Z,100405.84
2023-01-09T17:19:21.643Z,100410.06
2023-01-09T17:21:50.932Z,100422.56
2023-01-09T17:24:36.883Z,100427.28
2023-01-09T17:27:25.719Z,100430.69
2023-01-09T17:29:59.403Z,100426.59
2023-01-09T17:32:27.667Z,100425.94
2023-01-09T17:34:57.106Z,100432.56
2023-01-09T17:37:24.138Z,100431.28
2023-01-09T17:40:03.779Z,100426.09
2023-01-09T17:42:31.003Z,100428.72
2023-01-09T17:44:58.448Z,100435.53
2023-01-09T17:47:25.423Z,100441.47
2023-01-09T17:49:52.367Z,100445.56
2023-01-09T17:52:19.515Z,100448.97
2023-01-09T17:54:46.362Z,100450.78
2023-01-09T17:57:17.549Z,100461.81
2023-01-09T17:59:45.110Z,100459.13
2023-01-09T18:02:19.047Z,100462.38
2023-01-09T18:04:46.177Z,100453.78
2023-01-09T18:07:15.755Z,100477.91
2023-01-09T18:09:43.878Z,100458.19
2023-01-09T18:12:11.078Z,100468.69
2023-01-09T18:14:38.247Z,100476.47
2023-01-09T18:17:06.431Z,100473.88
2023-01-09T18:19:36.421Z,100476.28
2023-01-09T18:22:12.681Z,100479.28
2023-01-09T18:24:42.279Z,100451.41
2023-01-09T18:27:09.507Z,100461.56
2023-01-09T18:29:36.452Z,100469.22
2023-01-09T18:32:03.616Z,100483.69
2023-01-09T18:34:30.469Z,100471.75
2023-01-09T18:36:57.714Z,100479.31
2023-01-09T18:39:24.625Z,100474.06
2023-01-09T18:41:52.752Z,100474.91
2023-01-09T18:44:22.143Z,100471.78
2023-01-09T18:46:49.642Z,100479.56
2023-01-09T18:49:16.790Z,100461.69
2023-01-09T18:51:44.200Z,100477.25
2023-01-09T19:01:34.491Z,100480.84
2023-01-09T19:04:03.084Z,100485.06
2023-01-09T19:06:31.336Z,100491.97
2023-01-09T19:08:59.787Z,100495.56
2023-01-09T19:11:27.266Z,100488.81
2023-01-09T19:13:54.331Z,100498.41
2023-01-09T19:16:21.583Z,100495.84
2023-01-09T19:18:48.707Z,100502.78
2023-01-09T19:21:19.466Z,100512.19
2023-01-09T19:23:47.580Z,100511.88
2023-01-09T19:26:28.091Z,100510.00
2023-01-09T19:28:57.458Z,100511.78
2023-01-09T19:31:26.668Z,100502.22
2023-01-09T19:33:53.660Z,100508.13
2023-01-09T19:36:21.731Z,100512.13
2023-01-09T19:38:48.917Z,100516.44
2023-01-09T19:41:19.577Z,100526.78
2023-01-09T19:43:48.657Z,100514.94
2023-01-09T19:46:19.005Z,100523.69
2023-01-09T19:48:48.882Z,100525.34
2023-01-09T19:51:18.539Z,100530.47
2023-01-09T19:56:29.929Z,100532.03
2023-01-09T19:59:05.917Z,100546.56
2023-01-09T20:01:36.567Z,100539.75
2023-01-09T20:04:10.307Z,100550.88
2023-01-09T20:06:41.721Z,100556.75
2023-01-09T20:09:11.328Z,100554.25
2023-01-09T20:11:41.275Z,100568.56
2023-01-09T20:14:12.762Z,100574.25
2023-01-09T20:16:40.750Z,100574.25
2023-01-09T20:19:09.449Z,100574.00
2023-01-09T20:21:40.779Z,100581.72
2023-01-09T20:24:12.347Z,100585.97
2023-01-09T20:26:41.931Z,100590.72
2023-01-09T20:29:09.244Z,100584.88
2023-01-09T20:31:36.830Z,100587.31
2023-01-09T20:34:05.184Z,100589.09
2023-01-09T20:36:34.432Z,100587.44
2023-01-09T20:39:05.790Z,100590.44
2023-01-09T20:41:34.353Z,100586.59
2023-01-09T20:44:07.893Z,100580.41
2023-01-09T20:46:38.206Z,100592.09
2023-01-09T20:49:07.808Z,100583.56
2023-01-09T20:51:36.187Z,100596.66
2023-01-09T20:54:03.926Z,100596.22
2023-01-09T20:56:32.375Z,100589.75
2023-01-09T20:59:00.674Z,100606.19
2023-01-09T21:01:28.733Z,100615.03
2023-01-09T21:03:58.378Z,100625.00
2023-01-09T21:06:27.580Z,100611.50
2023-01-09T21:08:54.726Z,100609.03
2023-01-09T21:11:22.869Z,100608.25
2023-01-09T21:13:50.751Z,100618.38
2023-01-09T21:16:21.654Z,100633.16
2023-01-09T21:18:49.424Z,100632.75
2023-01-09T21:21:19.312Z,100634.09
2023-01-09T21:23:53.006Z,100626.38
2023-01-09T21:26:23.461Z,100635.38
2023-01-09T21:28:55.343Z,100626.06
2023-01-09T21:31:50.826Z,100637.47
2023-01-09T21:34:23.445Z,100624.09
2023-01-09T21:36:51.014Z,100633.66
2023-01-09T21:39:20.208Z,100632.13
2023-01-09T21:42:05.913Z,100625.13
2023-01-09T21:44:51.042Z,100625.75
2023-01-09T21:47:18.338Z,100635.25
2023-01-09T21:49:45.879Z,100628.59
2023-01-09T21:52:14.284Z,100638.88
2023-01-09T21:54:41.968Z,100641.97
2023-01-09T21:57:09.678Z,100639.16
2023-01-09T21:59:39.294Z,100654.66
2023-01-09T22:02:38.929Z,100650.53
2023-01-09T22:05:06.124Z,100637.72
2023-01-09T22:07:35.975Z,100662.09
2023-01-09T22:10:03.700Z,100662.69
2023-01-09T22:12:30.765Z,100681.22
2023-01-09T22:15:02.035Z,100671.97
2023-01-09T22:17:29.995Z,100678.88
2023-01-09T22:19:57.047Z,100688.84
2023-01-09T22:22:27.277Z,100674.75
2023-01-09T22:24:54.554Z,100696.69
2023-01-09T22:27:21.575Z,100685.19
2023-01-09T22:29:49.240Z,100700.47
2023-01-09T22:32:15.990Z,100704.91
2023-01-09T22:34:42.936Z,100715.03
2023-01-09T22:37:09.836Z,100716.03
2023-01-09T22:39:36.720Z,100721.31
2023-01-09T22:42:03.617Z,100720.59
2023-01-09T22:44:33.383Z,100728.44
2023-01-09T22:47:00.578Z,100718.16
2023-01-09T22:49:30.298Z,100732.47
2023-01-09T22:52:00.331Z,100732.59
2023-01-09T22:54:27.135Z,100742.56
2023-01-09T22:56:53.966Z,100736.41
2023-01-09T22:59:20.718Z,100739.41
2023-01-09T23:01:47.589Z,100728.19
2023-01-09T23:04:14.575Z,100742.78
2023-01-09T23:06:41.544Z,100745.13
2023-01-09T23:09:10.641Z,100749.47
2023-01-09T23:11:55.942Z,100744.81
2023-01-09T23:14:22.840Z,100754.44
2023-01-09T23:16:49.900Z,100758.00
2023-01-09T23:19:16.884Z,100743.81
2023-01-09T23:21:45.160Z,100755.84
2023-01-09T23:24:13.394Z,100759.56
2023-01-09T23:26:40.153Z,100757.16
2023-01-09T23:29:08.073Z,100766.38
2023-01-09T23:31:35.694Z,100763.09
2023-01-09T23:34:04.113Z,100768.94
2023-01-09T23:36:30.973Z,100776.44
2023-01-09T23:38:57.877Z,100779.97
2023-01-09T23:41:44.616Z,100773.69
2023-01-09T23:44:11.879Z,100782.56
2023-01-09T23:46:38.594Z,100778.41
2023-01-09T23:49:05.363Z,100786.06
2023-01-09T23:51:32.239Z,100791.47
2023-01-09T23:53:59.132Z,100797.13
2023-01-09T23:56:26.072Z,100799.94
2023-01-09T23:58:52.792Z,100810.59
